sensor_id;sensor_type;location;lat;lon;timestamp;P1;durP1;ratioP1;P2;durP2;ratioP2
15258;SDS011;34462;51.368;12.364;2022-10-31T00:01:25;12.63;;;8.60;;
15258;SDS011;34462;51.368;12.364;2022-10-31T00:03:55;9.57;;;8.30;;
15258;SDS011;34462;51.368;12.364;2022-10-31T00:06:26;10.90;;;7.93;;
15258;SDS011;34462;51.368;12.364;2022-10-31T00:08:56;10.75;;;8.07;;
15258;SDS011;34462;51.368;12.364;2022-10-31T00:11:27;8.95;;;7.72;;
15258;SDS011;34462;51.368;12.364;2022-10-31T00:13:56;9.15;;;7.60;;
15258;SDS011;34462;51.368;12.364;2022-10-31T00:16:25;9.50;;;7.75;;
15258;SDS011;34462;51.368;12.364;2022-10-31T00:18:57;9.68;;;7.50;;
15258;SDS011;34462;51.368;12.364;2022-10-31T00:21:29;11.57;;;7.25;;
15258;SDS011;34462;51.368;12.364;2022-10-31T00:23:58;9.23;;;7.05;;
15258;SDS011;34462;51.368;12.364;2022-10-31T00:26:28;10.25;;;7.70;;
15258;SDS011;34462;51.368;12.364;2022-10-31T00:28:57;10.77;;;7.20;;
15258;SDS011;34462;51.368;12.364;2022-10-31T00:31:26;9.55;;;7.00;;
15258;SDS011;34462;51.368;12.364;2022-10-31T00:33:55;11.55;;;7.75;;
15258;SDS011;34462;51.368;12.364;2022-10-31T00:36:24;12.48;;;7.47;;
15258;SDS011;34462;51.368;12.364;2022-10-31T00:38:54;9.95;;;6.85;;
15258;SDS011;34462;51.368;12.364;2022-10-31T00:41:22;9.52;;;7.20;;
15258;SDS011;34462;51.368;12.364;2022-10-31T00:43:50;10.95;;;7.28;;
15258;SDS011;34462;51.368;12.364;2022-10-31T00:46:19;12.70;;;7.47;;
15258;SDS011;34462;51.368;12.364;2022-10-31T00:48:47;10.88;;;7.03;;
15258;SDS011;34462;51.368;12.364;2022-10-31T00:51:15;10.88;;;8.02;;
15258;SDS011;34462;51.368;12.364;2022-10-31T00:53:43;11.77;;;7.32;;
15258;SDS011;34462;51.368;12.364;2022-10-31T00:56:12;10.18;;;6.95;;
15258;SDS011;34462;51.368;12.364;2022-10-31T00:58:40;7.43;;;6.50;;
15258;SDS011;34462;51.368;12.364;2022-10-31T01:01:08;10.75;;;7.88;;
15258;SDS011;34462;51.368;12.364;2022-10-31T01:03:37;10.73;;;7.63;;
15258;SDS011;34462;51.368;12.364;2022-10-31T01:06:06;14.30;;;6.88;;
15258;SDS011;34462;51.368;12.364;2022-10-31T01:08:37;9.60;;;7.50;;
15258;SDS011;34462;51.368;12.364;2022-10-31T01:11:07;10.13;;;7.67;;
15258;SDS011;34462;51.368;12.364;2022-10-31T01:13:40;14.57;;;7.67;;
15258;SDS011;34462;51.368;12.364;2022-10-31T01:16:10;11.90;;;8.73;;
15258;SDS011;34462;51.368;12.364;2022-10-31T01:18:40;12.40;;;9.70;;
15258;SDS011;34462;51.368;12.364;2022-10-31T01:21:09;12.38;;;9.10;;
15258;SDS011;34462;51.368;12.364;2022-10-31T01:23:39;15.02;;;11.15;;
15258;SDS011;34462;51.368;12.364;2022-10-31T01:26:09;13.30;;;11.25;;
15258;SDS011;34462;51.368;12.364;2022-10-31T01:28:44;13.30;;;10.85;;
15258;SDS011;34462;51.368;12.364;2022-10-31T01:31:14;14.63;;;11.35;;
15258;SDS011;34462;51.368;12.364;2022-10-31T01:33:45;18.15;;;15.30;;
15258;SDS011;34462;51.368;12.364;2022-10-31T01:36:14;18.07;;;15.37;;
15258;SDS011;34462;51.368;12.364;2022-10-31T01:38:45;18.67;;;16.67;;
15258;SDS011;34462;51.368;12.364;2022-10-31T01:41:16;24.92;;;19.85;;
15258;SDS011;34462;51.368;12.364;2022-10-31T01:43:49;27.47;;;20.27;;
15258;SDS011;34462;51.368;12.364;2022-10-31T01:46:23;18.67;;;16.67;;
15258;SDS011;34462;51.368;12.364;2022-10-31T01:48:56;17.30;;;14.57;;
15258;SDS011;34462;51.368;12.364;2022-10-31T01:51:29;15.27;;;12.13;;
15258;SDS011;34462;51.368;12.364;2022-10-31T01:54:02;12.85;;;10.55;;
15258;SDS011;34462;51.368;12.364;2022-10-31T01:56:36;11.65;;;9.18;;
15258;SDS011;34462;51.368;12.364;2022-10-31T01:59:11;13.13;;;8.77;;
15258;SDS011;34462;51.368;12.364;2022-10-31T02:01:44;9.85;;;8.13;;
15258;SDS011;34462;51.368;12.364;2022-10-31T02:04:13;10.60;;;7.50;;
15258;SDS011;34462;51.368;12.364;2022-10-31T02:06:44;10.47;;;8.03;;
15258;SDS011;34462;51.368;12.364;2022-10-31T02:09:21;11.27;;;8.13;;
15258;SDS011;34462;51.368;12.364;2022-10-31T02:11:52;11.88;;;8.23;;
15258;SDS011;34462;51.368;12.364;2022-10-31T02:14:26;9.80;;;7.67;;
15258;SDS011;34462;51.368;12.364;2022-10-31T02:16:57;7.90;;;7.10;;
15258;SDS011;34462;51.368;12.364;2022-10-31T02:19:26;12.30;;;7.70;;
15258;SDS011;34462;51.368;12.364;2022-10-31T02:22:04;10.87;;;7.53;;
15258;SDS011;34462;51.368;12.364;2022-10-31T02:24:44;9.57;;;7.15;;
15258;SDS011;34462;51.368;12.364;2022-10-31T02:30:59;11.00;;;6.70;;
15258;SDS011;34462;51.368;12.364;2022-10-31T02:33:45;9.03;;;7.33;;
15258;SDS011;34462;51.368;12.364;2022-10-31T02:36:21;10.10;;;7.77;;
15258;SDS011;34462;51.368;12.364;2022-10-31T02:39:00;8.20;;;7.40;;
15258;SDS011;34462;51.368;12.364;2022-10-31T02:41:43;11.43;;;7.73;;
15258;SDS011;34462;51.368;12.364;2022-10-31T02:44:20;13.57;;;8.40;;
15258;SDS011;34462;51.368;12.364;2022-10-31T02:46:58;11.10;;;8.33;;
15258;SDS011;34462;51.368;12.364;2022-10-31T02:49:33;10.17;;;8.33;;
15258;SDS011;34462;51.368;12.364;2022-10-31T02:52:13;10.67;;;7.67;;
15258;SDS011;34462;51.368;12.364;2022-10-31T02:54:45;11.53;;;7.57;;
15258;SDS011;34462;51.368;12.364;2022-10-31T02:57:16;10.03;;;7.43;;
15258;SDS011;34462;51.368;12.364;2022-10-31T02:59:50;10.43;;;7.80;;
15258;SDS011;34462;51.368;12.364;2022-10-31T03:02:30;11.70;;;7.50;;
15258;SDS011;34462;51.368;12.364;2022-10-31T03:05:31;11.80;;;7.65;;
15258;SDS011;34462;51.368;12.364;2022-10-31T03:08:22;10.73;;;7.60;;
15258;SDS011;34462;51.368;12.364;2022-10-31T03:10:58;11.17;;;7.60;;
15258;SDS011;34462;51.368;12.364;2022-10-31T03:13:32;9.40;;;6.90;;
15258;SDS011;34462;51.368;12.364;2022-10-31T03:16:11;11.37;;;7.63;;
15258;SDS011;34462;51.368;12.364;2022-10-31T03:18:48;9.70;;;7.33;;
15258;SDS011;34462;51.368;12.364;2022-10-31T03:21:22;12.77;;;7.77;;
15258;SDS011;34462;51.368;12.364;2022-10-31T03:23:57;10.80;;;7.23;;
15258;SDS011;34462;51.368;12.364;2022-10-31T03:26:28;11.43;;;8.20;;
15258;SDS011;34462;51.368;12.364;2022-10-31T03:28:59;14.67;;;8.00;;
15258;SDS011;34462;51.368;12.364;2022-10-31T03:31:33;12.53;;;7.47;;
15258;SDS011;34462;51.368;12.364;2022-10-31T03:34:09;11.97;;;8.20;;
15258;SDS011;34462;51.368;12.364;2022-10-31T03:36:41;10.07;;;7.30;;
15258;SDS011;34462;51.368;12.364;2022-10-31T03:39:12;9.60;;;7.87;;
15258;SDS011;34462;51.368;12.364;2022-10-31T03:41:45;13.93;;;8.88;;
15258;SDS011;34462;51.368;12.364;2022-10-31T03:44:21;11.02;;;8.40;;
15258;SDS011;34462;51.368;12.364;2022-10-31T03:46:51;11.37;;;8.13;;
15258;SDS011;34462;51.368;12.364;2022-10-31T03:49:21;9.50;;;7.83;;
15258;SDS011;34462;51.368;12.364;2022-10-31T03:51:51;9.27;;;7.97;;
15258;SDS011;34462;51.368;12.364;2022-10-31T03:54:27;12.93;;;7.83;;
15258;SDS011;34462;51.368;12.364;2022-10-31T03:57:05;13.07;;;7.87;;
15258;SDS011;34462;51.368;12.364;2022-10-31T03:59:43;10.53;;;8.03;;
15258;SDS011;34462;51.368;12.364;2022-10-31T04:02:18;11.47;;;8.23;;
15258;SDS011;34462;51.368;12.364;2022-10-31T04:04:57;12.27;;;8.63;;
15258;SDS011;34462;51.368;12.364;2022-10-31T04:07:27;13.87;;;10.33;;
15258;SDS011;34462;51.368;12.364;2022-10-31T04:10:01;14.60;;;12.13;;
15258;SDS011;34462;51.368;12.364;2022-10-31T04:12:35;14.03;;;11.83;;
15258;SDS011;34462;51.368;12.364;2022-10-31T04:15:06;14.63;;;10.83;;
15258;SDS011;34462;51.368;12.364;2022-10-31T04:17:37;12.40;;;10.47;;
15258;SDS011;34462;51.368;12.364;2022-10-31T04:20:11;12.47;;;10.73;;
15258;SDS011;34462;51.368;12.364;2022-10-31T04:22:43;16.30;;;13.67;;
15258;SDS011;34462;51.368;12.364;2022-10-31T04:25:11;18.77;;;16.03;;
15258;SDS011;34462;51.368;12.364;2022-10-31T04:27:39;26.43;;;23.47;;
15258;SDS011;34462;51.368;12.364;2022-10-31T04:30:08;24.50;;;21.07;;
15258;SDS011;34462;51.368;12.364;2022-10-31T04:32:37;20.00;;;14.03;;
15258;SDS011;34462;51.368;12.364;2022-10-31T04:35:05;14.73;;;11.20;;
15258;SDS011;34462;51.368;12.364;2022-10-31T04:37:35;12.83;;;10.23;;
15258;SDS011;34462;51.368;12.364;2022-10-31T04:40:03;11.93;;;9.53;;
15258;SDS011;34462;51.368;12.364;2022-10-31T04:42:33;12.93;;;8.93;;
15258;SDS011;34462;51.368;12.364;2022-10-31T04:45:01;10.47;;;8.27;;
15258;SDS011;34462;51.368;12.364;2022-10-31T04:47:30;13.40;;;8.83;;
15258;SDS011;34462;51.368;12.364;2022-10-31T04:49:59;9.55;;;8.20;;
15258;SDS011;34462;51.368;12.364;2022-10-31T04:52:30;11.40;;;8.83;;
15258;SDS011;34462;51.368;12.364;2022-10-31T04:54:59;10.97;;;8.17;;
15258;SDS011;34462;51.368;12.364;2022-10-31T04:57:27;15.67;;;8.70;;
15258;SDS011;34462;51.368;12.364;2022-10-31T04:59:55;10.20;;;8.07;;
15258;SDS011;34462;51.368;12.364;2022-10-31T05:02:23;10.57;;;8.00;;
15258;SDS011;34462;51.368;12.364;2022-10-31T05:04:51;10.70;;;8.97;;
15258;SDS011;34462;51.368;12.364;2022-10-31T05:07:19;9.10;;;8.20;;
15258;SDS011;34462;51.368;12.364;2022-10-31T05:09:47;9.97;;;8.53;;
15258;SDS011;34462;51.368;12.364;2022-10-31T05:12:16;11.70;;;8.70;;
15258;SDS011;34462;51.368;12.364;2022-10-31T05:14:44;11.97;;;8.27;;
15258;SDS011;34462;51.368;12.364;2022-10-31T05:17:14;12.20;;;8.70;;
15258;SDS011;34462;51.368;12.364;2022-10-31T05:19:42;11.97;;;8.43;;
15258;SDS011;34462;51.368;12.364;2022-10-31T05:22:10;11.77;;;8.40;;
15258;SDS011;34462;51.368;12.364;2022-10-31T05:24:37;11.80;;;8.53;;
15258;SDS011;34462;51.368;12.364;2022-10-31T05:27:05;9.23;;;8.15;;
15258;SDS011;34462;51.368;12.364;2022-10-31T05:29:35;10.03;;;7.60;;
15258;SDS011;34462;51.368;12.364;2022-10-31T05:32:03;14.80;;;9.20;;
15258;SDS011;34462;51.368;12.364;2022-10-31T05:34:31;8.63;;;7.73;;
15258;SDS011;34462;51.368;12.364;2022-10-31T05:36:59;10.40;;;8.23;;
15258;SDS011;34462;51.368;12.364;2022-10-31T05:39:27;10.67;;;8.10;;
15258;SDS011;34462;51.368;12.364;2022-10-31T05:41:55;10.13;;;8.50;;
15258;SDS011;34462;51.368;12.364;2022-10-31T05:44:23;11.97;;;8.60;;
15258;SDS011;34462;51.368;12.364;2022-10-31T05:46:52;12.00;;;8.70;;
15258;SDS011;34462;51.368;12.364;2022-10-31T05:49:20;11.27;;;8.40;;
15258;SDS011;34462;51.368;12.364;2022-10-31T05:51:48;12.97;;;8.97;;
15258;SDS011;34462;51.368;12.364;2022-10-31T05:54:16;12.73;;;9.23;;
15258;SDS011;34462;51.368;12.364;2022-10-31T05:56:44;10.20;;;7.77;;
15258;SDS011;34462;51.368;12.364;2022-10-31T05:59:12;10.10;;;8.23;;
15258;SDS011;34462;51.368;12.364;2022-10-31T06:01:40;11.27;;;8.30;;
15258;SDS011;34462;51.368;12.364;2022-10-31T06:04:10;15.20;;;8.70;;
15258;SDS011;34462;51.368;12.364;2022-10-31T06:06:38;19.40;;;8.57;;
15258;SDS011;34462;51.368;12.364;2022-10-31T06:09:06;12.20;;;8.87;;
15258;SDS011;34462;51.368;12.364;2022-10-31T06:11:34;12.70;;;8.60;;
15258;SDS011;34462;51.368;12.364;2022-10-31T06:14:02;10.43;;;8.63;;
15258;SDS011;34462;51.368;12.364;2022-10-31T06:16:30;11.87;;;8.67;;
15258;SDS011;34462;51.368;12.364;2022-10-31T06:18:58;14.17;;;8.67;;
15258;SDS011;34462;51.368;12.364;2022-10-31T06:21:27;9.77;;;8.17;;
15258;SDS011;34462;51.368;12.364;2022-10-31T06:23:55;12.07;;;8.53;;
15258;SDS011;34462;51.368;12.364;2022-10-31T06:26:23;16.27;;;10.83;;
15258;SDS011;34462;51.368;12.364;2022-10-31T06:28:51;13.87;;;9.97;;
15258;SDS011;34462;51.368;12.364;2022-10-31T06:31:22;12.63;;;8.50;;
15258;SDS011;34462;51.368;12.364;2022-10-31T06:33:50;12.73;;;8.53;;
15258;SDS011;34462;51.368;12.364;2022-10-31T06:36:18;11.50;;;8.13;;
15258;SDS011;34462;51.368;12.364;2022-10-31T06:38:48;13.33;;;8.60;;
15258;SDS011;34462;51.368;12.364;2022-10-31T06:41:16;11.40;;;9.07;;
15258;SDS011;34462;51.368;12.364;2022-10-31T06:43:45;12.37;;;9.17;;
15258;SDS011;34462;51.368;12.364;2022-10-31T06:46:14;13.23;;;8.57;;
15258;SDS011;34462;51.368;12.364;2022-10-31T06:48:42;10.67;;;8.80;;
15258;SDS011;34462;51.368;12.364;2022-10-31T06:51:10;10.47;;;8.10;;
15258;SDS011;34462;51.368;12.364;2022-10-31T06:53:38;12.83;;;8.63;;
15258;SDS011;34462;51.368;12.364;2022-10-31T06:56:07;11.00;;;8.40;;
15258;SDS011;34462;51.368;12.364;2022-10-31T06:58:35;11.43;;;8.27;;
15258;SDS011;34462;51.368;12.364;2022-10-31T07:01:03;11.10;;;8.43;;
15258;SDS011;34462;51.368;12.364;2022-10-31T07:03:32;10.07;;;8.90;;
15258;SDS011;34462;51.368;12.364;2022-10-31T07:06:00;10.40;;;8.25;;
15258;SDS011;34462;51.368;12.364;2022-10-31T07:08:28;13.13;;;7.63;;
15258;SDS011;34462;51.368;12.364;2022-10-31T07:10:56;10.23;;;8.37;;
15258;SDS011;34462;51.368;12.364;2022-10-31T07:13:26;9.20;;;7.67;;
15258;SDS011;34462;51.368;12.364;2022-10-31T07:15:55;10.97;;;7.97;;
15258;SDS011;34462;51.368;12.364;2022-10-31T07:18:28;7.60;;;6.80;;
15258;SDS011;34462;51.368;12.364;2022-10-31T07:20:56;8.93;;;7.37;;
15258;SDS011;34462;51.368;12.364;2022-10-31T07:23:24;12.60;;;8.00;;
15258;SDS011;34462;51.368;12.364;2022-10-31T07:25:54;10.57;;;8.50;;
15258;SDS011;34462;51.368;12.364;2022-10-31T07:28:23;11.83;;;9.97;;
15258;SDS011;34462;51.368;12.364;2022-10-31T07:30:54;11.83;;;9.27;;
15258;SDS011;34462;51.368;12.364;2022-10-31T07:33:24;10.45;;;8.18;;
15258;SDS011;34462;51.368;12.364;2022-10-31T07:35:53;11.50;;;8.52;;
15258;SDS011;34462;51.368;12.364;2022-10-31T07:38:21;12.05;;;8.93;;
15258;SDS011;34462;51.368;12.364;2022-10-31T07:40:49;12.95;;;8.55;;
15258;SDS011;34462;51.368;12.364;2022-10-31T07:43:19;10.30;;;7.45;;
15258;SDS011;34462;51.368;12.364;2022-10-31T07:45:49;9.57;;;7.88;;
15258;SDS011;34462;51.368;12.364;2022-10-31T07:48:19;10.57;;;8.02;;
15258;SDS011;34462;51.368;12.364;2022-10-31T07:50:48;11.38;;;7.95;;
15258;SDS011;34462;51.368;12.364;2022-10-31T07:53:16;10.30;;;8.02;;
15258;SDS011;34462;51.368;12.364;2022-10-31T07:55:44;9.77;;;7.13;;
15258;SDS011;34462;51.368;12.364;2022-10-31T07:58:13;9.05;;;7.13;;
15258;SDS011;34462;51.368;12.364;2022-10-31T08:00:43;9.73;;;7.45;;
15258;SDS011;34462;51.368;12.364;2022-10-31T08:03:14;10.02;;;7.47;;
15258;SDS011;34462;51.368;12.364;2022-10-31T08:05:45;12.20;;;7.95;;
15258;SDS011;34462;51.368;12.364;2022-10-31T08:08:14;9.35;;;7.53;;
15258;SDS011;34462;51.368;12.364;2022-10-31T08:10:42;9.75;;;7.70;;
15258;SDS011;34462;51.368;12.364;2022-10-31T08:13:11;10.77;;;7.90;;
15258;SDS011;34462;51.368;12.364;2022-10-31T08:15:41;10.32;;;7.95;;
15258;SDS011;34462;51.368;12.364;2022-10-31T08:18:10;12.88;;;7.75;;
15258;SDS011;34462;51.368;12.364;2022-10-31T08:20:40;13.65;;;8.10;;
15258;SDS011;34462;51.368;12.364;2022-10-31T08:23:11;10.55;;;8.00;;
15258;SDS011;34462;51.368;12.364;2022-10-31T08:25:40;10.90;;;7.18;;
15258;SDS011;34462;51.368;12.364;2022-10-31T08:28:09;8.90;;;7.65;;
15258;SDS011;34462;51.368;12.364;2022-10-31T08:30:39;10.75;;;7.63;;
15258;SDS011;34462;51.368;12.364;2022-10-31T08:33:09;10.05;;;6.50;;
15258;SDS011;34462;51.368;12.364;2022-10-31T08:35:39;7.95;;;7.10;;
15258;SDS011;34462;51.368;12.364;2022-10-31T08:38:08;11.02;;;7.78;;
15258;SDS011;34462;51.368;12.364;2022-10-31T08:40:39;11.73;;;8.15;;
15258;SDS011;34462;51.368;12.364;2022-10-31T08:43:10;13.73;;;9.23;;
15258;SDS011;34462;51.368;12.364;2022-10-31T08:45:41;11.02;;;9.07;;
15258;SDS011;34462;51.368;12.364;2022-10-31T08:48:11;9.27;;;8.23;;
15258;SDS011;34462;51.368;12.364;2022-10-31T08:50:41;12.27;;;9.25;;
15258;SDS011;34462;51.368;12.364;2022-10-31T08:53:12;10.48;;;7.97;;
15258;SDS011;34462;51.368;12.364;2022-10-31T08:55:44;11.52;;;8.65;;
15258;SDS011;34462;51.368;12.364;2022-10-31T08:58:14;14.45;;;9.23;;
15258;SDS011;34462;51.368;12.364;2022-10-31T09:00:45;13.57;;;9.43;;
15258;SDS011;34462;51.368;12.364;2022-10-31T09:03:15;12.95;;;9.45;;
15258;SDS011;34462;51.368;12.364;2022-10-31T09:05:45;12.05;;;9.05;;
15258;SDS011;34462;51.368;12.364;2022-10-31T09:08:14;14.20;;;9.65;;
15258;SDS011;34462;51.368;12.364;2022-10-31T09:10:44;20.17;;;12.15;;
15258;SDS011;34462;51.368;12.364;2022-10-31T09:13:13;19.10;;;12.10;;
15258;SDS011;34462;51.368;12.364;2022-10-31T09:15:44;19.98;;;13.48;;
15258;SDS011;34462;51.368;12.364;2022-10-31T09:18:15;18.58;;;12.50;;
15258;SDS011;34462;51.368;12.364;2022-10-31T09:20:45;19.83;;;12.98;;
15258;SDS011;34462;51.368;12.364;2022-10-31T09:23:15;23.63;;;14.63;;
15258;SDS011;34462;51.368;12.364;2022-10-31T09:25:47;18.85;;;13.55;;
15258;SDS011;34462;51.368;12.364;2022-10-31T09:28:19;22.75;;;15.63;;
15258;SDS011;34462;51.368;12.364;2022-10-31T09:30:50;24.58;;;17.40;;
15258;SDS011;34462;51.368;12.364;2022-10-31T09:33:20;29.85;;;19.33;;
15258;SDS011;34462;51.368;12.364;2022-10-31T09:35:48;33.25;;;18.73;;
15258;SDS011;34462;51.368;12.364;2022-10-31T09:38:17;33.67;;;20.15;;
15258;SDS011;34462;51.368;12.364;2022-10-31T09:40:49;37.15;;;22.60;;
15258;SDS011;34462;51.368;12.364;2022-10-31T09:43:29;39.45;;;23.65;;
15258;SDS011;34462;51.368;12.364;2022-10-31T09:46:08;41.97;;;25.10;;
15258;SDS011;34462;51.368;12.364;2022-10-31T09:48:52;40.85;;;24.40;;
15258;SDS011;34462;51.368;12.364;2022-10-31T09:51:51;40.47;;;24.02;;
15258;SDS011;34462;51.368;12.364;2022-10-31T09:54:29;33.08;;;22.38;;
15258;SDS011;34462;51.368;12.364;2022-10-31T09:57:05;35.67;;;22.38;;
15258;SDS011;34462;51.368;12.364;2022-10-31T09:59:40;34.33;;;21.83;;
15258;SDS011;34462;51.368;12.364;2022-10-31T10:02:13;34.15;;;22.27;;
15258;SDS011;34462;51.368;12.364;2022-10-31T10:05:00;36.00;;;23.05;;
15258;SDS011;34462;51.368;12.364;2022-10-31T10:07:34;40.72;;;24.35;;
15258;SDS011;34462;51.368;12.364;2022-10-31T10:10:17;39.42;;;24.92;;
15258;SDS011;34462;51.368;12.364;2022-10-31T10:13:05;38.42;;;23.45;;
15258;SDS011;34462;51.368;12.364;2022-10-31T10:15:57;40.03;;;23.90;;
15258;SDS011;34462;51.368;12.364;2022-10-31T10:18:41;35.22;;;23.13;;
15258;SDS011;34462;51.368;12.364;2022-10-31T10:21:25;38.03;;;23.38;;
15258;SDS011;34462;51.368;12.364;2022-10-31T10:24:11;34.83;;;22.15;;
15258;SDS011;34462;51.368;12.364;2022-10-31T10:26:59;35.95;;;22.33;;
15258;SDS011;34462;51.368;12.364;2022-10-31T10:29:51;34.20;;;23.77;;
15258;SDS011;34462;51.368;12.364;2022-10-31T10:32:29;36.40;;;22.92;;
15258;SDS011;34462;51.368;12.364;2022-10-31T10:35:19;34.00;;;21.83;;
15258;SDS011;34462;51.368;12.364;2022-10-31T10:37:56;38.20;;;23.88;;
15258;SDS011;34462;51.368;12.364;2022-10-31T10:40:29;32.67;;;21.98;;
15258;SDS011;34462;51.368;12.364;2022-10-31T10:42:59;30.95;;;19.60;;
15258;SDS011;34462;51.368;12.364;2022-10-31T10:45:49;35.28;;;21.95;;
15258;SDS011;34462;51.368;12.364;2022-10-31T10:48:44;36.03;;;21.17;;
15258;SDS011;34462;51.368;12.364;2022-10-31T10:51:21;36.47;;;21.60;;
15258;SDS011;34462;51.368;12.364;2022-10-31T10:57:21;38.65;;;24.73;;
15258;SDS011;34462;51.368;12.364;2022-10-31T10:59:59;36.85;;;24.10;;
15258;SDS011;34462;51.368;12.364;2022-10-31T11:02:44;35.08;;;23.65;;
15258;SDS011;34462;51.368;12.364;2022-10-31T11:05:17;35.65;;;23.42;;
15258;SDS011;34462;51.368;12.364;2022-10-31T11:07:52;37.35;;;24.00;;
15258;SDS011;34462;51.368;12.364;2022-10-31T11:10:20;34.60;;;22.73;;
15258;SDS011;34462;51.368;12.364;2022-10-31T11:12:57;37.03;;;22.98;;
15258;SDS011;34462;51.368;12.364;2022-10-31T11:15:50;33.40;;;22.27;;
15258;SDS011;34462;51.368;12.364;2022-10-31T11:18:25;37.60;;;24.92;;
15258;SDS011;34462;51.368;12.364;2022-10-31T11:20:57;35.85;;;22.88;;
15258;SDS011;34462;51.368;12.364;2022-10-31T11:23:28;37.25;;;23.55;;
15258;SDS011;34462;51.368;12.364;2022-10-31T11:25:58;35.35;;;23.52;;
15258;SDS011;34462;51.368;12.364;2022-10-31T11:28:29;36.85;;;24.10;;
15258;SDS011;34462;51.368;12.364;2022-10-31T11:31:04;34.17;;;22.35;;
15258;SDS011;34462;51.368;12.364;2022-10-31T11:33:37;36.25;;;23.35;;
15258;SDS011;34462;51.368;12.364;2022-10-31T11:36:14;36.50;;;23.25;;
15258;SDS011;34462;51.368;12.364;2022-10-31T11:38:48;34.47;;;22.60;;
15258;SDS011;34462;51.368;12.364;2022-10-31T11:41:17;32.55;;;21.85;;
15258;SDS011;34462;51.368;12.364;2022-10-31T11:43:53;36.13;;;22.70;;
15258;SDS011;34462;51.368;12.364;2022-10-31T11:46:26;37.78;;;23.80;;
15258;SDS011;34462;51.368;12.364;2022-10-31T11:49:02;33.63;;;22.48;;
15258;SDS011;34462;51.368;12.364;2022-10-31T11:51:38;36.60;;;22.20;;
15258;SDS011;34462;51.368;12.364;2022-10-31T11:54:15;33.45;;;23.23;;
15258;SDS011;34462;51.368;12.364;2022-10-31T11:56:51;33.70;;;21.40;;
15258;SDS011;34462;51.368;12.364;2022-10-31T11:59:22;35.10;;;23.88;;
15258;SDS011;34462;51.368;12.364;2022-10-31T12:01:55;33.20;;;23.70;;
15258;SDS011;34462;51.368;12.364;2022-10-31T12:04:31;36.22;;;23.17;;
15258;SDS011;34462;51.368;12.364;2022-10-31T12:07:07;30.48;;;21.73;;
15258;SDS011;34462;51.368;12.364;2022-10-31T12:09:36;30.42;;;21.05;;
15258;SDS011;34462;51.368;12.364;2022-10-31T12:15:28;31.50;;;21.83;;
15258;SDS011;34462;51.368;12.364;2022-10-31T12:21:15;39.17;;;24.08;;
15258;SDS011;34462;51.368;12.364;2022-10-31T12:24:04;28.48;;;19.75;;
15258;SDS011;34462;51.368;12.364;2022-10-31T12:26:50;36.53;;;23.35;;
15258;SDS011;34462;51.368;12.364;2022-10-31T12:29:38;32.60;;;21.50;;
15258;SDS011;34462;51.368;12.364;2022-10-31T12:32:32;36.40;;;22.52;;
15258;SDS011;34462;51.368;12.364;2022-10-31T12:35:22;34.42;;;22.38;;
15258;SDS011;34462;51.368;12.364;2022-10-31T12:38:18;37.25;;;22.65;;
15258;SDS011;34462;51.368;12.364;2022-10-31T12:41:10;30.00;;;19.55;;
15258;SDS011;34462;51.368;12.364;2022-10-31T12:44:12;29.80;;;19.20;;
15258;SDS011;34462;51.368;12.364;2022-10-31T12:50:22;30.20;;;19.73;;
15258;SDS011;34462;51.368;12.364;2022-10-31T12:53:07;33.40;;;23.35;;
15258;SDS011;34462;51.368;12.364;2022-10-31T12:56:04;31.95;;;22.40;;
15258;SDS011;34462;51.368;12.364;2022-10-31T12:58:45;32.90;;;22.55;;
15258;SDS011;34462;51.368;12.364;2022-10-31T13:01:21;34.80;;;22.45;;
15258;SDS011;34462;51.368;12.364;2022-10-31T13:03:57;32.35;;;23.38;;
15258;SDS011;34462;51.368;12.364;2022-10-31T13:06:33;34.28;;;22.35;;
15258;SDS011;34462;51.368;12.364;2022-10-31T13:09:11;31.75;;;22.20;;
15258;SDS011;34462;51.368;12.364;2022-10-31T13:11:47;35.40;;;22.20;;
15258;SDS011;34462;51.368;12.364;2022-10-31T13:14:25;33.95;;;22.02;;
15258;SDS011;34462;51.368;12.364;2022-10-31T13:17:00;32.50;;;21.75;;
15258;SDS011;34462;51.368;12.364;2022-10-31T13:19:30;40.10;;;22.70;;
15258;SDS011;34462;51.368;12.364;2022-10-31T13:22:06;29.70;;;20.75;;
15258;SDS011;34462;51.368;12.364;2022-10-31T13:24:41;32.25;;;21.50;;
15258;SDS011;34462;51.368;12.364;2022-10-31T13:27:22;29.58;;;20.75;;
15258;SDS011;34462;51.368;12.364;2022-10-31T13:29:56;29.35;;;20.85;;
15258;SDS011;34462;51.368;12.364;2022-10-31T13:32:35;32.75;;;21.67;;
15258;SDS011;34462;51.368;12.364;2022-10-31T13:35:12;33.80;;;21.65;;
15258;SDS011;34462;51.368;12.364;2022-10-31T13:37:52;28.27;;;19.77;;
15258;SDS011;34462;51.368;12.364;2022-10-31T13:40:40;30.85;;;21.85;;
15258;SDS011;34462;51.368;12.364;2022-10-31T13:43:20;33.33;;;22.15;;
15258;SDS011;34462;51.368;12.364;2022-10-31T13:45:59;39.47;;;24.48;;
15258;SDS011;34462;51.368;12.364;2022-10-31T13:48:34;28.83;;;19.50;;
15258;SDS011;34462;51.368;12.364;2022-10-31T13:51:07;37.35;;;22.63;;
15258;SDS011;34462;51.368;12.364;2022-10-31T13:53:39;34.90;;;23.08;;
15258;SDS011;34462;51.368;12.364;2022-10-31T13:56:15;32.22;;;21.83;;
15258;SDS011;34462;51.368;12.364;2022-10-31T13:58:58;35.25;;;21.50;;
15258;SDS011;34462;51.368;12.364;2022-10-31T14:01:47;33.53;;;22.60;;
15258;SDS011;34462;51.368;12.364;2022-10-31T14:04:20;32.60;;;22.30;;
15258;SDS011;34462;51.368;12.364;2022-10-31T14:06:54;32.13;;;21.67;;
15258;SDS011;34462;51.368;12.364;2022-10-31T14:09:31;36.00;;;23.23;;
15258;SDS011;34462;51.368;12.364;2022-10-31T14:12:05;35.28;;;23.08;;
15258;SDS011;34462;51.368;12.364;2022-10-31T14:14:52;29.98;;;21.20;;
15258;SDS011;34462;51.368;12.364;2022-10-31T14:17:27;24.27;;;18.02;;
15258;SDS011;34462;51.368;12.364;2022-10-31T14:23:10;34.35;;;22.65;;
15258;SDS011;34462;51.368;12.364;2022-10-31T14:26:16;30.73;;;21.90;;
15258;SDS011;34462;51.368;12.364;2022-10-31T14:28:58;30.08;;;20.45;;
15258;SDS011;34462;51.368;12.364;2022-10-31T14:31:34;36.88;;;24.83;;
15258;SDS011;34462;51.368;12.364;2022-10-31T14:34:15;39.55;;;25.55;;
15258;SDS011;34462;51.368;12.364;2022-10-31T14:40:01;42.50;;;26.33;;
15258;SDS011;34462;51.368;12.364;2022-10-31T14:42:51;43.15;;;25.10;;
15258;SDS011;34462;51.368;12.364;2022-10-31T14:45:52;37.30;;;24.90;;
15258;SDS011;34462;51.368;12.364;2022-10-31T14:48:33;41.58;;;25.80;;
15258;SDS011;34462;51.368;12.364;2022-10-31T14:51:26;41.67;;;26.05;;
15258;SDS011;34462;51.368;12.364;2022-10-31T14:54:03;44.33;;;27.50;;
15258;SDS011;34462;51.368;12.364;2022-10-31T14:56:41;38.03;;;27.17;;
15258;SDS011;34462;51.368;12.364;2022-10-31T14:59:24;40.70;;;26.92;;
15258;SDS011;34462;51.368;12.364;2022-10-31T15:01:59;44.35;;;28.40;;
15258;SDS011;34462;51.368;12.364;2022-10-31T15:04:42;42.28;;;27.15;;
15258;SDS011;34462;51.368;12.364;2022-10-31T15:07:15;49.97;;;28.10;;
15258;SDS011;34462;51.368;12.364;2022-10-31T15:09:56;49.08;;;26.67;;
15258;SDS011;34462;51.368;12.364;2022-10-31T15:12:26;44.80;;;28.48;;
15258;SDS011;34462;51.368;12.364;2022-10-31T15:14:57;45.03;;;27.70;;
15258;SDS011;34462;51.368;12.364;2022-10-31T15:17:42;45.28;;;28.83;;